KCZT

Dimmit County Airport

Carrizo Springs, Texas, USA
METAR KCZT 181955Z AUTO 03003KT 10SM OVC004 11/11 A3011 RMK AO2
Observed Flight Rules
Dec-18 @ 19:55 UTC (30 minutes ago) Instrument Flight Rules
Wind Visibility Clouds
30° at 3 knots 10 miles
  • Overcast at 400' AGL
Temperatures Readings
Current 11°C / 52°F
Dewpoint 11°C / 52°F
Humidity 100%
Altimeter 30.11" Hg
Pressure 1020 hPa
Elevation 183
METAR KCZT 181955Z AUTO 03003KT 10SM OVC004 11/11 A3011 RMK AO2
Observed Flight Rules
Dec-18 @ 19:55 UTC
(30 minutes ago)
LIFR
Wind Visibility
30° at 3 knots 10 miles
Clouds
  • Overcast at 400' AGL
Temperature Dewpoint
11°C / 52°F 11°C / 52°F
Humidity Altimeter Pressure
100% 30.11" Hg 1020 hPa